Language: 


Des rapports , des résumés tant et plus, au choix de chacun....


Données statistiques de la station
Quotidien Rapport Mars 20, 2017 Unités:  Anglais    Métrique   les deux
« Précédent Jour
Suivant Jour »
Quotidien Hebdomadaire Mensuel Annuel Actuel
  Haut: Bas: Moyen:
Température: 54 °F 49.6 °F 51.8 °F
Pt de rosée: 52 °F 45.9 °F 49.3 °F
Humidité: 98 % 74 % 91 %
Vitesse du vent: 20.6 mph 4.9 mph 11.7 mph
Rafales: 24.2 mph - -
Vent:- - WSW
Pression: 29.8 in 29.7 in -
Précipitation: 0.09 in    
Historical Graphs
 
 
Données statistiques pour Mars 20, 2017
Heure Température Point de rosée Pression Vent Vitesse du vent Refales Humidité Pluie (taux horaire)
00:03 51.3 °F 49.3 °F 29.8 in West 11 mph 17 mph 93 % 0 in
00:08 51.1 °F 49.1 °F 29.8 in WSW 10.5 mph 16.8 mph 93 % 0 in
00:13 51.3 °F 49.3 °F 29.8 in WSW 15.9 mph 19.7 mph 93 % 0 in
00:18 51.3 °F 49.3 °F 29.8 in WSW 11 mph 19.7 mph 93 % 0 in
00:23 51.3 °F 49.3 °F 29.8 in WSW 12.5 mph 20.1 mph 93 % 0 in
00:28 51.3 °F 49.3 °F 29.8 in WSW 12.5 mph 20.1 mph 93 % 0 in
00:33 51.3 °F 49.3 °F 29.8 in WSW 15.4 mph 19.5 mph 93 % 0 in
00:38 51.3 °F 49.3 °F 29.8 in WSW 16.8 mph 19.5 mph 93 % 0 in
00:43 51.3 °F 49.3 °F 29.8 in WSW 13.2 mph 19 mph 93 % 0 in
00:48 51.3 °F 49.3 °F 29.8 in West 16.1 mph 19.9 mph 93 % 0 in
00:53 51.3 °F 49.3 °F 29.8 in WSW 10.5 mph 19.9 mph 93 % 0 in
00:58 51.3 °F 49.3 °F 29.8 in WSW 15.4 mph 16.8 mph 93 % 0 in
01:03 51.3 °F 49.3 °F 29.8 in WSW 12.5 mph 16.8 mph 93 % 0 in
01:08 51.3 °F 49.3 °F 29.8 in WSW 14.8 mph 15.7 mph 93 % 0 in
01:13 51.3 °F 49.3 °F 29.8 in WSW 11 mph 17.4 mph 93 % 0 in
01:18 51.3 °F 49.3 °F 29.8 in WSW 16.8 mph 17.4 mph 93 % 0 in
01:24 51.3 °F 49.6 °F 29.8 in WSW 15.4 mph 17 mph 94 % 0 in
01:29 51.3 °F 49.6 °F 29.8 in WSW 13.4 mph 16.8 mph 94 % 0 in
01:34 51.1 °F 49.5 °F 29.8 in WSW 13.4 mph 17.2 mph 94 % 0 in
01:39 51.1 °F 49.5 °F 29.8 in West 15.4 mph 17.2 mph 94 % 0 in
01:43 51.1 °F 49.5 °F 29.8 in WSW 17.9 mph 17.9 mph 94 % 0 in
01:49 51.1 °F 49.5 °F 29.8 in WSW 10.3 mph 17.9 mph 94 % 0 in
01:54 51.1 °F 49.5 °F 29.8 in WSW 8.1 mph 17.4 mph 94 % 0 in
01:59 51.1 °F 49.5 °F 29.8 in WSW 15.2 mph 17.4 mph 94 % 0 in
02:04 51.1 °F 49.5 °F 29.8 in WSW 10.7 mph 15.4 mph 94 % 0 in
02:09 50.9 °F 49.3 °F 29.8 in WSW 11 mph 17.7 mph 94 % 0 in
02:14 50.9 °F 49.3 °F 29.8 in WSW 15.7 mph 19.9 mph 94 % 0 in
02:19 51.1 °F 49.6 °F 29.8 in WSW 13 mph 19.9 mph 95 % 0 in
02:24 51.1 °F 49.6 °F 29.8 in WSW 13.6 mph 20.8 mph 95 % 0 in
02:29 50.9 °F 49.5 °F 29.8 in WSW 13 mph 20.8 mph 95 % 0 in
02:34 50.9 °F 49.5 °F 29.8 in WSW 12.8 mph 17.7 mph 95 % 0 in
02:39 50.9 °F 49.5 °F 29.8 in WSW 20.4 mph 20.4 mph 95 % 0 in
02:44 50.9 °F 49.5 °F 29.8 in WSW 11.2 mph 20.4 mph 95 % 0 in
02:49 50.9 °F 49.5 °F 29.8 in WSW 12.3 mph 17.4 mph 95 % 0 in
02:54 50.9 °F 49.5 °F 29.8 in WSW 10.1 mph 17.4 mph 95 % 0 in
02:59 50.7 °F 49.6 °F 29.8 in WSW 8.5 mph 16.1 mph 96 % 0 in
03:04 50.7 °F 49.6 °F 29.8 in WSW 10.7 mph 15.2 mph 96 % 0 in
03:09 50.7 °F 49.6 °F 29.8 in WSW 9.6 mph 14.8 mph 96 % 0 in
03:14 50.7 °F 49.6 °F 29.8 in WSW 8.1 mph 17.4 mph 96 % 0 in
03:19 50.9 °F 49.8 °F 29.8 in WSW 10.1 mph 17.4 mph 96 % 0 in
03:24 50.9 °F 49.8 °F 29.8 in WSW 10.1 mph 16.1 mph 96 % 0 in
03:29 50.9 °F 49.8 °F 29.8 in WSW 10.5 mph 16.1 mph 96 % 0 in
03:34 50.9 °F 49.8 °F 29.8 in WSW 8.5 mph 15.4 mph 96 % 0 in
03:39 50.9 °F 49.8 °F 29.8 in WSW 10.3 mph 15.4 mph 96 % 0 in
03:44 50.9 °F 49.8 °F 29.8 in WSW 10.1 mph 16.6 mph 96 % 0 in
03:49 50.9 °F 49.8 °F 29.8 in WSW 9.4 mph 16.6 mph 96 % 0 in
03:54 50.9 °F 49.8 °F 29.8 in WSW 15.4 mph 15.4 mph 96 % 0 in
03:59 51.1 °F 50 °F 29.8 in WSW 15.2 mph 19 mph 96 % 0 in
04:04 51.1 °F 50 °F 29.8 in WSW 9.8 mph 19 mph 96 % 0 in
04:09 51.1 °F 50 °F 29.8 in WSW 14.3 mph 17.7 mph 96 % 0 in
04:14 50.9 °F 49.8 °F 29.8 in West 13.9 mph 19.2 mph 96 % 0 in
04:19 50.7 °F 49.6 °F 29.8 in West 14.3 mph 19.2 mph 96 % 0 in
04:24 50.5 °F 49.6 °F 29.8 in West 12.5 mph 17.4 mph 97 % 0 in
04:29 50.5 °F 49.6 °F 29.8 in WSW 12.3 mph 17.4 mph 97 % 0 in
04:34 50.5 °F 49.6 °F 29.8 in WSW 12.8 mph 14.8 mph 97 % 0 in
04:39 50.5 °F 49.6 °F 29.8 in WSW 12.8 mph 15.4 mph 97 % 0 in
04:44 50.5 °F 50 °F 29.8 in WSW 14.5 mph 15.4 mph 98 % 0 in
04:49 50.4 °F 49.8 °F 29.8 in WSW 10.3 mph 17.4 mph 98 % 0 in
04:54 50.4 °F 49.8 °F 29.8 in WSW 8.5 mph 17.4 mph 98 % 0 in
04:59 50.4 °F 49.8 °F 29.8 in WSW 14.8 mph 14.8 mph 98 % 0 in
05:04 50.4 °F 49.8 °F 29.8 in WSW 11.9 mph 14.8 mph 98 % 0 in
05:09 50.4 °F 49.8 °F 29.8 in West 9.2 mph 18.8 mph 98 % 0 in
05:14 50.2 °F 49.6 °F 29.8 in WSW 7.8 mph 18.8 mph 98 % 0 in
05:19 50.2 °F 49.6 °F 29.8 in WSW 10.7 mph 17.2 mph 98 % 0 in
05:24 50.2 °F 49.6 °F 29.8 in WSW 10.1 mph 17.2 mph 98 % 0 in
05:29 50.2 °F 49.6 °F 29.8 in WSW 11.2 mph 17.2 mph 98 % 0 in
05:34 50.2 °F 49.6 °F 29.8 in WSW 14.5 mph 15.9 mph 98 % 0 in
05:39 50.2 °F 49.6 °F 29.8 in SSW 11 mph 15.9 mph 98 % 0 in
05:44 50 °F 49.5 °F 29.8 in WSW 12.5 mph 19.7 mph 98 % 0 in
05:50 50 °F 49.3 °F 29.8 in SW 14.3 mph 19.7 mph 97 % 0 in
05:55 49.8 °F 48.9 °F 29.8 in WSW 9.8 mph 18.8 mph 97 % 0 in
06:00 49.8 °F 48.9 °F 29.8 in WSW 13.2 mph 18.8 mph 97 % 0 in
06:05 49.6 °F 48.7 °F 29.8 in WSW 8.7 mph 16.3 mph 97 % 0 in
06:10 49.6 °F 49.1 °F 29.8 in WSW 12.8 mph 13.6 mph 98 % 0 in
06:15 49.6 °F 49.1 °F 29.8 in WSW 10.1 mph 13 mph 98 % 0 in
06:20 49.6 °F 49.1 °F 29.8 in WSW 10.7 mph 17.9 mph 98 % 0 in
06:25 49.6 °F 49.1 °F 29.8 in WSW 13.2 mph 17.9 mph 98 % 0 in
06:30 49.6 °F 49.1 °F 29.8 in SW 8.7 mph 15.2 mph 98 % 0 in
06:35 49.8 °F 48.9 °F 29.8 in SSW 12.8 mph 16.3 mph 97 % 0 in
06:40 49.8 °F 48.9 °F 29.8 in SSW 10.5 mph 16.6 mph 97 % 0 in
06:45 49.8 °F 48.9 °F 29.8 in SSW 15.2 mph 18.1 mph 97 % 0 in
06:50 49.8 °F 48.9 °F 29.8 in WSW 11 mph 18.1 mph 97 % 0 in
06:55 49.8 °F 48.9 °F 29.8 in WSW 11.4 mph 17.2 mph 97 % 0 in
07:00 49.8 °F 48.9 °F 29.8 in SW 10.5 mph 14.5 mph 97 % 0 in
07:05 49.8 °F 48.9 °F 29.8 in WSW 11 mph 17.4 mph 97 % 0 in
07:10 49.8 °F 48.9 °F 29.8 in SW 7.6 mph 17.4 mph 97 % 0 in
07:15 49.8 °F 48.9 °F 29.8 in SW 10.1 mph 14.5 mph 97 % 0 in
07:20 49.8 °F 48.9 °F 29.8 in SSW 10.5 mph 14.5 mph 97 % 0 in
07:25 49.8 °F 48.9 °F 29.8 in WSW 7.4 mph 13.4 mph 97 % 0 in
07:30 50 °F 49.3 °F 29.8 in SW 9.8 mph 13.4 mph 97 % 0 in
07:35 50 °F 49.3 °F 29.8 in WSW 10.1 mph 11.9 mph 97 % 0 in
07:40 50 °F 49.3 °F 29.8 in WSW 6.5 mph 10.7 mph 97 % 0 in
07:45 50 °F 49.3 °F 29.8 in SSW 10.3 mph 13.2 mph 97 % 0 in
07:50 50 °F 49.3 °F 29.8 in SW 8.9 mph 13.2 mph 97 % 0 in
07:55 50.2 °F 49.5 °F 29.8 in SW 11 mph 13.9 mph 97 % 0 in
08:00 50.2 °F 49.1 °F 29.8 in WSW 12.5 mph 17.4 mph 96 % 0 in
08:05 50.2 °F 49.1 °F 29.8 in SW 8.1 mph 17.4 mph 96 % 0 in
08:10 50.2 °F 49.1 °F 29.8 in SW 12.3 mph 12.5 mph 96 % 0 in
08:15 50.4 °F 48.9 °F 29.8 in West 10.1 mph 15.4 mph 95 % 0 in
08:20 50.7 °F 48.9 °F 29.8 in SW 8.1 mph 15.4 mph 94 % 0 in
08:23 50.9 °F 49.3 °F 29.8 in WSW 12.3 mph 15.4 mph 94 % 0 in
08:28 51.1 °F 49.1 °F 29.8 in WSW 10.3 mph 15.2 mph 93 % 0 in
08:33 51.3 °F 48.9 °F 29.8 in SW 11.9 mph 15.2 mph 92 % 0 in
08:38 51.4 °F 48.6 °F 29.8 in SSW 13.2 mph 13.6 mph 90 % 0 in
08:39 51.4 °F 48.4 °F 29.8 in WSW 13 mph 17.2 mph 89 % 0 in
08:44 51.8 °F 48.4 °F 29.8 in WSW 14.8 mph 17.2 mph 88 % 0 in
08:49 51.8 °F 48 °F 29.8 in WSW 13 mph 15.9 mph 87 % 0 in
08:54 52 °F 47.8 °F 29.8 in SW 15.2 mph 15.4 mph 86 % 0 in
08:59 51.8 °F 47.5 °F 29.8 in SW 11 mph 21 mph 85 % 0 in
09:04 51.6 °F 47.1 °F 29.8 in WSW 14.1 mph 21 mph 85 % 0 in
09:09 51.4 °F 46.9 °F 29.8 in WSW 14.5 mph 19.9 mph 85 % 0 in
09:14 51.4 °F 47.5 °F 29.8 in SSW 14.5 mph 19.9 mph 86 % 0 in
09:19 51.6 °F 47.5 °F 29.8 in WSW 13.4 mph 15.4 mph 86 % 0 in
09:24 51.6 °F 47.5 °F 29.8 in SW 15.2 mph 15.4 mph 86 % 0 in
09:29 51.8 °F 47.7 °F 29.8 in WSW 12.5 mph 15.2 mph 86 % 0 in
09:34 51.8 °F 47.5 °F 29.8 in WSW 12.1 mph 15.9 mph 85 % 0 in
09:39 51.8 °F 47.5 °F 29.8 in WSW 12.8 mph 19.5 mph 85 % 0 in
09:44 51.8 °F 47.1 °F 29.8 in SW 17 mph 19.5 mph 84 % 0 in
09:49 52 °F 47.7 °F 29.8 in WSW 9.8 mph 17 mph 85 % 0 in
09:54 52.2 °F 47.7 °F 29.8 in WSW 12.3 mph 17 mph 85 % 0 in
09:59 52.5 °F 48 °F 29.8 in SSW 20.4 mph 20.4 mph 85 % 0 in
10:04 52.5 °F 47.8 °F 29.8 in SSW 13 mph 20.4 mph 84 % 0 in
10:09 53.2 °F 48.6 °F 29.7 in WSW 10.1 mph 17.7 mph 84 % 0 in
10:14 53.1 °F 48.4 °F 29.7 in SW 13.6 mph 17.7 mph 84 % 0 in
10:19 52.9 °F 47.8 °F 29.7 in WSW 11 mph 17.7 mph 83 % 0 in
10:24 52.9 °F 48 °F 29.8 in WSW 17.7 mph 19.5 mph 84 % 0 in
10:29 52.5 °F 47.8 °F 29.8 in WSW 12.5 mph 19.5 mph 84 % 0 in
10:34 52.5 °F 47.8 °F 29.8 in WSW 7.8 mph 19.9 mph 84 % 0 in
10:39 52.5 °F 47.8 °F 29.8 in WSW 13.2 mph 19.9 mph 84 % 0 in
10:44 52.5 °F 48 °F 29.8 in WSW 9.8 mph 19.5 mph 85 % 0 in
10:49 52.9 °F 48.7 °F 29.8 in SSW 7.6 mph 17.2 mph 86 % 0 in
10:54 52.9 °F 48.7 °F 29.8 in SW 13.4 mph 17.7 mph 86 % 0 in
10:59 52.5 °F 48.4 °F 29.8 in SW 15.2 mph 22.4 mph 85 % 0 in
11:04 52.5 °F 48.4 °F 29.8 in SW 13.2 mph 22.4 mph 85 % 0 in
11:09 52.9 °F 48.4 °F 29.7 in SW 14.3 mph 19.5 mph 85 % 0 in
11:14 52.9 °F 48.7 °F 29.7 in WSW 13 mph 17.4 mph 86 % 0 in
11:19 52.9 °F 48.4 °F 29.7 in WSW 16.1 mph 23 mph 85 % 0 in
11:24 52.5 °F 48.6 °F 29.8 in WSW 13.2 mph 23.7 mph 86 % 0 in
11:30 52.5 °F 48.6 °F 29.8 in WSW 9.8 mph 23.7 mph 86 % 0 in
11:35 52.9 °F 49.1 °F 29.8 in SSW 8.7 mph 19.5 mph 87 % 0 in
11:40 52.5 °F 48.9 °F 29.7 in WSW 13.2 mph 19.9 mph 87 % 0 in
11:45 52.5 °F 48.9 °F 29.7 in SW 8.7 mph 19.9 mph 87 % 0 in
11:50 52.5 °F 48.9 °F 29.7 in SSW 11 mph 17.2 mph 87 % 0 in
11:55 52.5 °F 48.9 °F 29.7 in WSW 16.8 mph 17.2 mph 87 % 0 in
12:00 52.9 °F 49.5 °F 29.7 in WSW 10.3 mph 17.7 mph 88 % 0 in
12:05 53.1 °F 49.5 °F 29.7 in WSW 10.7 mph 21.3 mph 88 % 0 in
12:10 53.2 °F 49.6 °F 29.7 in SSW 13 mph 21.3 mph 88 % 0 in
12:15 53.2 °F 49.6 °F 29.7 in SW 12.5 mph 20.4 mph 88 % 0 in
12:20 53.2 °F 49.6 °F 29.7 in SW 14.8 mph 19.7 mph 88 % 0 in
12:25 53.2 °F 49.6 °F 29.7 in SSW 9.4 mph 19.7 mph 88 % 0 in
12:30 53.2 °F 49.6 °F 29.7 in WSW 13.9 mph 17.2 mph 88 % 0 in
12:35 53.2 °F 49.6 °F 29.7 in WSW 10.3 mph 18.8 mph 88 % 0 in
12:40 53.2 °F 49.6 °F 29.7 in WSW 11 mph 18.8 mph 88 % 0 in
12:41 53.2 °F 49.6 °F 29.7 in SW 13 mph 17.2 mph 88 % 0 in
12:46 53.2 °F 49.6 °F 29.7 in SW 11 mph 17.7 mph 88 % 0 in
12:51 53.2 °F 49.8 °F 29.7 in WSW 17 mph 17.7 mph 88 % 0 in
12:56 53.8 °F 50.2 °F 29.7 in WSW 13 mph 18.8 mph 88 % 0 in
13:01 53.8 °F 49.8 °F 29.7 in SSW 17 mph 22.4 mph 87 % 0 in
13:06 54 °F 50.4 °F 29.7 in SW 12.8 mph 22.4 mph 87 % 0 in
13:11 54 °F 50.4 °F 29.7 in WSW 14.8 mph 14.8 mph 87 % 0 in
13:16 53.8 °F 49.3 °F 29.7 in WSW 15.4 mph 22.1 mph 85 % 0 in
13:21 53.8 °F 49.3 °F 29.7 in WSW 15.2 mph 22.1 mph 85 % 0 in
13:26 53.8 °F 49.3 °F 29.7 in WSW 19.7 mph 22.1 mph 85 % 0 in
13:32 53.8 °F 49.6 °F 29.7 in SW 14.8 mph 21.9 mph 86 % 0 in
13:37 53.4 °F 49.1 °F 29.7 in WSW 14.3 mph 20.4 mph 85 % 0 in
13:42 53.2 °F 49.3 °F 29.7 in SW 17.4 mph 20.4 mph 86 % 0 in
13:43 53.2 °F 49.1 °F 29.7 in SW 17 mph 22.1 mph 86 % 0 in
13:48 53.1 °F 49.5 °F 29.7 in SW 17.4 mph 22.1 mph 88 % 0 in
13:53 52.9 °F 50 °F 29.7 in SSW 13.2 mph 20.1 mph 90 % 0 in
13:58 52.5 °F 50.2 °F 29.7 in SSW 10.3 mph 20.1 mph 91 % 0 in
14:03 52.5 °F 50.2 °F 29.7 in WSW 12.3 mph 16.8 mph 91 % 0 in
14:08 52.5 °F 50.4 °F 29.7 in SSW 10.7 mph 17.7 mph 92 % 0 in
14:13 52.5 °F 50.4 °F 29.7 in SW 12.5 mph 17.7 mph 92 % 0 in
14:18 52.5 °F 50.4 °F 29.7 in SSW 10.3 mph 20.1 mph 92 % 0 in
14:23 52.5 °F 50.2 °F 29.7 in WSW 10.5 mph 20.1 mph 92 % 0 in
14:28 52.5 °F 50.2 °F 29.7 in WSW 10.1 mph 16.1 mph 92 % 0 in
14:33 52.5 °F 50.5 °F 29.7 in SSW 8.5 mph 15.2 mph 93 % 0 in
14:38 52.5 °F 50.7 °F 29.7 in WSW 13.9 mph 17.7 mph 93 % 0 in
14:43 52.5 °F 50.4 °F 29.7 in SSW 15.4 mph 17.7 mph 92 % 0 in
14:48 52.9 °F 50.5 °F 29.7 in WSW 15.4 mph 19.7 mph 92 % 0 in
14:53 52.9 °F 50.5 °F 29.7 in WSW 9.8 mph 19.7 mph 92 % 0 in
14:58 52.9 °F 50.5 °F 29.7 in WSW 10.5 mph 19.7 mph 92 % 0 in
15:03 52.9 °F 50.5 °F 29.7 in WSW 6.3 mph 17 mph 92 % 0 in
15:08 52.5 °F 50.4 °F 29.7 in WSW 10.3 mph 15.2 mph 92 % 0 in
15:13 52.5 °F 50.4 °F 29.7 in SSW 10.5 mph 14.8 mph 92 % 0 in
15:18 52.5 °F 50.7 °F 29.7 in WSW 13 mph 17.2 mph 93 % 0 in
15:23 52.9 °F 50.7 °F 29.7 in WSW 13.2 mph 19.7 mph 93 % 0 in
15:28 53.1 °F 51.3 °F 29.7 in SW 12.8 mph 19.7 mph 94 % 0 in
15:33 53.1 °F 51.3 °F 29.7 in WSW 13.2 mph 17.4 mph 94 % 0 in
15:38 52.9 °F 51.1 °F 29.7 in WSW 9.8 mph 17.4 mph 94 % 0 in
15:43 52.5 °F 51.1 °F 29.7 in WSW 10.3 mph 20.6 mph 94 % 0 in
15:48 52.5 °F 51.1 °F 29.7 in WSW 13 mph 20.6 mph 94 % 0 in
15:53 52.5 °F 51.1 °F 29.7 in SW 11 mph 17.4 mph 94 % 0 in
15:58 52.5 °F 50.7 °F 29.7 in WSW 11 mph 15.2 mph 93 % 0 in
16:03 52.5 °F 50.7 °F 29.7 in WSW 9.4 mph 15.2 mph 93 % 0 in
16:08 52.5 °F 50.5 °F 29.7 in WSW 10.7 mph 15.2 mph 93 % 0 in
16:13 52.5 °F 50.7 °F 29.7 in WSW 8.5 mph 13.2 mph 94 % 0 in
16:18 52.5 °F 50.7 °F 29.7 in WSW 10.3 mph 15.4 mph 94 % 0 in
16:23 52.5 °F 50.7 °F 29.7 in WSW 10.5 mph 15.4 mph 94 % 0 in
16:28 52.5 °F 51.1 °F 29.7 in WSW 10.1 mph 12.8 mph 95 % 0 in
16:33 52.5 °F 51.3 °F 29.7 in WSW 7.6 mph 12.8 mph 95 % 0 in
16:38 53.1 °F 51.6 °F 29.7 in WSW 10.3 mph 12.8 mph 95 % 0 in
16:43 53.2 °F 52 °F 29.7 in West 11.2 mph 12.8 mph 95 % 0 in
16:48 53.4 °F 51.8 °F 29.7 in SW 9.4 mph 12.5 mph 94 % 0 in
16:53 53.8 °F 50.7 °F 29.7 in WSW 11.4 mph 14.5 mph 90 % 0 in
16:58 54 °F 50.2 °F 29.7 in WSW 12.3 mph 14.5 mph 87 % 0 in
17:03 54 °F 49.3 °F 29.7 in WSW 8.7 mph 13.9 mph 84 % 0 in
17:08 54 °F 48.4 °F 29.7 in WSW 10.5 mph 13.9 mph 81 % 0 in
17:13 54 °F 47.7 °F 29.7 in WSW 14.5 mph 16.3 mph 79 % 0 in
17:18 54 °F 46.9 °F 29.7 in SW 16.8 mph 18.8 mph 77 % 0 in
17:23 54 °F 46.2 °F 29.7 in SSW 12.1 mph 18.8 mph 75 % 0 in
17:28 54 °F 45.9 °F 29.7 in SSW 15.2 mph 23.9 mph 74 % 0 in
17:33 54 °F 46 °F 29.7 in SW 13.2 mph 23.9 mph 75 % 0 in
17:38 54 °F 46.2 °F 29.7 in WSW 14.3 mph 18.1 mph 75 % 0 in
17:43 54 °F 46.2 °F 29.7 in SW 12.1 mph 18.1 mph 75 % 0 in
17:48 54 °F 46.2 °F 29.7 in SW 12.5 mph 20.1 mph 75 % 0 in
17:53 54 °F 46 °F 29.7 in SW 10.1 mph 20.1 mph 75 % 0 in
17:58 54 °F 46 °F 29.7 in WSW 12.8 mph 15.4 mph 75 % 0 in
18:03 54 °F 46 °F 29.7 in SW 13.2 mph 16.1 mph 75 % 0 in
18:08 53.4 °F 46 °F 29.7 in WSW 20.6 mph 24.2 mph 76 % 0 in
18:13 53.2 °F 46.8 °F 29.7 in WSW 11.2 mph 24.2 mph 79 % 0 in
18:18 53.1 °F 46.9 °F 29.7 in WSW 8.7 mph 24.2 mph 80 % 0 in
18:23 52.9 °F 47.5 °F 29.7 in WSW 13 mph 15.9 mph 82 % 0 in
18:28 52.5 °F 47.3 °F 29.7 in WSW 7.8 mph 14.1 mph 82 % 0 in
18:34 52.5 °F 47.3 °F 29.7 in SW 7.4 mph 13 mph 82 % 0 in
18:39 52.5 °F 47.3 °F 29.7 in WSW 11 mph 11 mph 82 % 0 in
18:44 52.5 °F 47.3 °F 29.7 in SSW 4.9 mph 11 mph 82 % 0 in
18:49 52.5 °F 47.3 °F 29.7 in SW 8.5 mph 11 mph 82 % 0 in
18:54 52.5 °F 47.3 °F 29.7 in SSW 6.5 mph 12.3 mph 82 % 0 in
18:59 52.5 °F 47.3 °F 29.7 in SW 8.5 mph 12.5 mph 82 % 0 in
19:04 52.9 °F 47.5 °F 29.7 in WSW 8.5 mph 16.8 mph 82 % 0 in
19:09 52.9 °F 47.5 °F 29.7 in WSW 9.6 mph 17.2 mph 82 % 0 in
19:14 52.9 °F 47.5 °F 29.7 in WSW 10.7 mph 17.2 mph 82 % 0 in
19:19 52.9 °F 47.8 °F 29.7 in WSW 10.5 mph 15.4 mph 83 % 0 in
19:24 52.9 °F 47.8 °F 29.7 in WSW 10.5 mph 18.1 mph 83 % 0 in
19:29 52.9 °F 47.8 °F 29.7 in WSW 14.5 mph 21 mph 83 % 0 in
19:34 52.9 °F 47.8 °F 29.7 in WSW 15.9 mph 21 mph 83 % 0 in
19:39 52.9 °F 47.8 °F 29.7 in WSW 13.2 mph 20.6 mph 83 % 0 in
19:44 52.9 °F 47.8 °F 29.7 in SSW 10.1 mph 18.8 mph 83 % 0 in
19:49 52.5 °F 47.8 °F 29.7 in SW 13.2 mph 19.7 mph 84 % 0 in
19:54 52.5 °F 48.4 °F 29.7 in WSW 12.5 mph 19.7 mph 85 % 0 in
19:59 52.5 °F 48 °F 29.7 in SW 11.2 mph 21.9 mph 85 % 0 in
20:04 52.5 °F 48.4 °F 29.7 in WSW 14.5 mph 21.9 mph 86 % 0 in
20:09 52.5 °F 48.4 °F 29.7 in WSW 11.2 mph 17.4 mph 86 % 0 in
20:14 52.3 °F 48.6 °F 29.7 in SW 12.3 mph 19.9 mph 87 % 0 in
20:19 52.2 °F 48.7 °F 29.7 in WSW 11.2 mph 19.9 mph 88 % 0 in
20:24 52 °F 48.7 °F 29.7 in SW 10.3 mph 15.2 mph 89 % 0 in
20:29 51.8 °F 48.9 °F 29.7 in WSW 13 mph 17.4 mph 90 % 0 in
20:34 51.6 °F 48.9 °F 29.7 in WSW 11 mph 17.4 mph 91 % 0 in
20:39 51.4 °F 49.3 °F 29.7 in WSW 5.8 mph 16.8 mph 92 % 0 in
20:44 51.4 °F 49.5 °F 29.7 in WSW 9.4 mph 13 mph 93 % 0 in
20:49 51.3 °F 49.6 °F 29.7 in SW 9.8 mph 14.8 mph 94 % 0 in
20:54 51.3 °F 49.6 °F 29.7 in SW 11 mph 14.8 mph 94 % 0.01 in
20:59 51.1 °F 49.6 °F 29.7 in SSW 8.5 mph 13 mph 95 % 0.02 in
21:04 51.1 °F 49.6 °F 29.7 in SW 7.4 mph 11 mph 95 % 0.03 in
21:09 50.9 °F 49.5 °F 29.7 in SW 7.4 mph 10.1 mph 95 % 0.03 in
21:14 50.9 °F 49.8 °F 29.7 in SW 6.5 mph 12.8 mph 96 % 0.03 in
21:19 50.7 °F 49.6 °F 29.7 in WSW 10.1 mph 13.2 mph 96 % 0.04 in
21:24 50.7 °F 49.8 °F 29.7 in SW 5.8 mph 13.2 mph 97 % 0.04 in
21:29 50.5 °F 49.6 °F 29.7 in WSW 7.8 mph 12.5 mph 97 % 0.04 in
21:34 50.5 °F 49.6 °F 29.7 in WSW 5.4 mph 10.7 mph 97 % 0.06 in
21:39 50.5 °F 49.6 °F 29.7 in SSW 7.8 mph 9.8 mph 97 % 0.06 in
21:44 50.5 °F 50 °F 29.7 in SSW 8.5 mph 9.8 mph 98 % 0.06 in
21:49 50.5 °F 50 °F 29.7 in WSW 6.5 mph 11 mph 98 % 0.06 in
21:54 50.5 °F 50 °F 29.7 in WSW 5.4 mph 11 mph 98 % 0.06 in
21:59 50.5 °F 50 °F 29.7 in WSW 8.1 mph 8.7 mph 98 % 0.05 in
22:04 50.5 °F 50 °F 29.7 in WSW 6.3 mph 10.3 mph 98 % 0.05 in
22:09 50.5 °F 50 °F 29.7 in SSW 6.3 mph 10.3 mph 98 % 0.05 in
22:14 50.5 °F 50 °F 29.7 in SW 8.7 mph 8.7 mph 98 % 0.05 in
22:19 50.5 °F 50 °F 29.7 in WSW 11.2 mph 12.5 mph 98 % 0.04 in
22:24 50.7 °F 50.2 °F 29.7 in WSW 12.8 mph 14.5 mph 98 % 0.05 in
22:29 50.7 °F 50.2 °F 29.7 in WSW 9.8 mph 14.5 mph 98 % 0.05 in
22:34 50.9 °F 50.4 °F 29.7 in SW 11 mph 13 mph 98 % 0.03 in
22:39 50.9 °F 50.4 °F 29.7 in WSW 15.4 mph 17.2 mph 98 % 0.03 in
22:44 51.1 °F 50.5 °F 29.7 in WSW 7.8 mph 19.9 mph 98 % 0.03 in
22:49 51.1 °F 50.5 °F 29.7 in WSW 8.5 mph 19.9 mph 98 % 0.03 in
22:54 51.3 °F 50.7 °F 29.7 in WSW 9.8 mph 18.6 mph 98 % 0.02 in
22:59 51.3 °F 50.7 °F 29.7 in West 10.7 mph 18.8 mph 98 % 0.02 in
23:04 51.3 °F 50.7 °F 29.7 in WSW 10.3 mph 18.8 mph 98 % 0.01 in
23:09 51.3 °F 50.7 °F 29.7 in WSW 14.5 mph 17.7 mph 98 % 0.01 in
23:14 51.3 °F 50.7 °F 29.7 in West 13.4 mph 17.7 mph 98 % 0.01 in
23:19 51.3 °F 50.7 °F 29.7 in WSW 14.5 mph 18.6 mph 98 % 0.01 in
23:25 51.1 °F 50.5 °F 29.7 in WSW 13.2 mph 18.6 mph 98 % 0 in
23:30 51.1 °F 50.5 °F 29.7 in WSW 12.3 mph 15.4 mph 98 % 0 in
23:35 50.9 °F 50.4 °F 29.7 in WSW 13.9 mph 17.2 mph 98 % 0 in
23:40 50.9 °F 50.4 °F 29.7 in WSW 7.8 mph 17.2 mph 98 % 0 in
23:45 50.7 °F 50.2 °F 29.7 in WSW 9.8 mph 17.2 mph 98 % 0 in
23:50 50.5 °F 50 °F 29.7 in WSW 17.4 mph 17.4 mph 98 % 0 in
23:55 50.4 °F 49.8 °F 29.7 in WSW 12.5 mph 17.4 mph 98 % 0 in
Le Gheer Warneton
Courtoisie de Weather Underground - 2.25 mb

Mise a jour : 17-12-17 03:18:12
Généré par Cumulus 1.9.4 (1099)